Time;durP1;ratioP1;P1;durP2;ratioP2;P2;SDS_P1;SDS_P2;PMS_P1;PMS_P2;Temp;Humidity;BMP_temperature;BMP_pressure;BME280_temperature;BME280_humidity;BME280_pressure;Samples;Min_cycle;Max_cycle;Signal;HPM_P1;HPM_P2
2022/01/10 00:01:43;;;;;;;23.40;11.50;;;;;;;-0.56;86.46;96751.94;1711590;84;20999;-74
2022/01/10 00:04:10;;;;;;;21.40;11.05;;;;;;;-0.56;86.04;96759.74;1711421;84;21046;-74
2022/01/10 00:06:36;;;;;;;22.65;11.00;;;;;;;-0.61;86.41;96759.33;1710076;84;21022;-74
2022/01/10 00:09:04;;;;;;;23.77;10.98;;;;;;;-0.63;86.25;96755.88;1695593;84;20989;-75
2022/01/10 00:11:31;;;;;;;23.60;10.65;;;;;;;-0.66;86.03;96747.66;1693557;85;20989;-74
2022/01/10 00:13:57;;;;;;;21.30;10.63;;;;;;;-0.69;86.28;96726.42;1693651;85;21020;-75
2022/01/10 00:16:24;;;;;;;23.05;11.10;;;;;;;-0.70;86.05;96716.02;1693683;85;21252;-75
2022/01/10 00:18:50;;;;;;;25.72;10.72;;;;;;;-0.81;86.62;96712.16;1698866;84;20994;-76
2022/01/10 00:21:17;;;;;;;23.92;10.98;;;;;;;-0.79;86.52;96716.91;1695668;84;21071;-75
2022/01/10 00:23:43;;;;;;;24.27;11.90;;;;;;;-0.77;86.59;96716.91;1693662;84;21020;-75
2022/01/10 00:26:10;;;;;;;25.10;11.12;;;;;;;-0.84;86.63;96725.17;1693608;85;21007;-76
2022/01/10 00:28:36;;;;;;;24.80;11.33;;;;;;;-0.89;87.20;96724.33;1693646;85;21367;-75
2022/01/10 00:31:02;;;;;;;25.05;11.55;;;;;;;-0.82;86.70;96736.45;1699624;84;21023;-76
2022/01/10 00:33:29;;;;;;;22.35;11.40;;;;;;;-0.82;87.15;96728.64;1686878;84;21109;-75
2022/01/10 00:35:55;;;;;;;21.57;11.10;;;;;;;-0.82;86.98;96726.89;1711394;84;21031;-75
2022/01/10 00:38:22;;;;;;;22.73;10.80;;;;;;;-0.88;87.15;96724.78;1711442;84;21046;-75
2022/01/10 00:40:50;;;;;;;25.92;11.85;;;;;;;-0.86;86.58;96730.83;1711492;84;20998;-75
2022/01/10 00:43:19;;;;;;;23.47;11.05;;;;;;;-0.85;87.25;96732.13;1702896;84;21412;-75
2022/01/10 00:45:46;;;;;;;29.25;11.80;;;;;;;-0.83;86.81;96713.45;1693722;84;21473;-75
2022/01/10 00:48:12;;;;;;;28.95;12.82;;;;;;;-0.78;87.04;96722.98;1693703;85;21050;-76
2022/01/10 00:50:38;;;;;;;27.25;11.45;;;;;;;-0.71;86.59;96723.40;1683821;83;21068;-76
2022/01/10 00:53:05;;;;;;;26.95;12.80;;;;;;;-0.69;86.81;96722.94;1677366;84;21056;-76
2022/01/10 00:55:33;;;;;;;23.57;11.60;;;;;;;-0.70;86.85;96707.75;1695752;84;21118;-75
2022/01/10 00:57:59;;;;;;;27.90;11.93;;;;;;;-0.69;86.65;96701.70;1711347;84;21445;-76
2022/01/10 01:00:26;;;;;;;27.22;11.97;;;;;;;-0.70;86.38;96698.64;1706437;84;20989;-76
2022/01/10 01:02:52;;;;;;;24.00;11.40;;;;;;;-0.73;86.67;96703.01;1698731;84;21056;-76
2022/01/10 01:05:22;;;;;;;28.75;12.25;;;;;;;-0.74;86.86;96693.48;1711623;84;20991;-76
2022/01/10 01:07:49;;;;;;;27.75;13.38;;;;;;;-0.74;86.66;96699.56;1711173;84;21030;-76
2022/01/10 01:15:26;;;;;;;29.67;11.83;;;;;;;-0.88;86.92;96697.47;1698972;84;21035;-76
2022/01/10 01:26:03;;;;;;;29.50;12.75;;;;;;;-0.84;86.43;96695.25;1693671;85;21033;-76
2022/01/10 01:28:31;;;;;;;26.62;11.10;;;;;;;-0.85;86.40;96694.41;1693473;85;20961;-76
2022/01/10 01:30:58;;;;;;;26.95;11.95;;;;;;;-0.85;86.24;96708.72;1693553;85;21012;-75
2022/01/10 01:33:25;;;;;;;24.85;10.63;;;;;;;-0.90;86.25;96710.90;1699827;84;20995;-75
2022/01/10 01:35:53;;;;;;;27.70;12.65;;;;;;;-0.94;86.18;96707.45;1687052;84;22267;-75
2022/01/10 01:38:20;;;;;;;22.85;10.93;;;;;;;-0.95;86.32;96709.17;1687136;84;21420;-75
2022/01/10 01:40:57;;;;;;;26.27;11.83;;;;;;;-0.98;86.51;96707.03;1711531;84;21038;-76
2022/01/10 01:43:18;;;;;;;25.48;11.05;;;;;;;-0.94;86.59;96707.03;1710367;84;20999;-76
2022/01/10 01:45:48;;;;;;;24.32;10.63;;;;;;;-0.96;86.66;96714.38;1704083;84;21525;-75
2022/01/10 01:48:15;;;;;;;27.10;12.07;;;;;;;-0.95;86.63;96713.08;1693606;85;21091;-75
2022/01/10 01:50:43;;;;;;;24.52;11.43;;;;;;;-0.93;86.76;96723.48;1693475;85;21060;-75
2022/01/10 01:53:10;;;;;;;30.52;13.30;;;;;;;-0.96;86.82;96723.48;1697208;84;21087;-75
2022/01/10 01:55:39;;;;;;;26.90;12.25;;;;;;;-0.94;86.92;96728.27;1694906;84;21102;-75
2022/01/10 01:58:07;;;;;;;27.10;11.15;;;;;;;-0.93;87.03;96731.28;1696362;84;21052;-75
2022/01/10 02:00:34;;;;;;;29.57;11.50;;;;;;;-0.91;86.69;96726.96;1667677;85;21013;-75
2022/01/10 02:03:01;;;;;;;26.85;11.35;;;;;;;-0.86;86.44;96726.92;1693387;85;21080;-75
2022/01/10 02:05:29;;;;;;;19.37;9.40;;;;;;;-0.86;86.41;96730.83;1693534;85;21020;-75
2022/01/10 02:07:56;;;;;;;24.55;10.90;;;;;;;-0.87;86.33;96731.70;1693532;85;21060;-75
2022/01/10 02:10:22;;;;;;;20.65;10.10;;;;;;;-0.88;86.47;96730.83;1680793;84;21003;-74
2022/01/10 02:12:48;;;;;;;24.10;10.95;;;;;;;-0.89;86.76;96733.43;1708692;84;21000;-74
2022/01/10 02:15:33;;;;;;;24.98;10.58;;;;;;;-0.85;86.52;96725.63;1698823;84;21068;-75
2022/01/10 02:18:00;;;;;;;25.40;10.38;;;;;;;-0.85;86.32;96728.64;1696792;84;20976;-75
2022/01/10 02:20:31;;;;;;;21.17;9.23;;;;;;;-0.87;86.35;96727.80;1693606;85;21472;-75
2022/01/10 02:22:58;;;;;;;22.77;10.72;;;;;;;-0.83;86.27;96730.37;1693622;85;21039;-75
2022/01/10 02:25:29;;;;;;;21.07;10.15;;;;;;;-0.87;86.29;96715.64;1667928;85;20981;-75
2022/01/10 02:27:58;;;;;;;23.60;9.83;;;;;;;-0.93;86.15;96705.27;1699761;84;21022;-75
2022/01/10 02:30:25;;;;;;;20.30;9.63;;;;;;;-0.94;86.30;96704.86;1710917;84;21058;-75
2022/01/10 02:32:57;;;;;;;22.95;9.63;;;;;;;-1.03;86.83;96712.69;1711314;84;21017;-75
2022/01/10 02:35:27;;;;;;;23.95;10.58;;;;;;;-1.08;86.87;96711.42;1699105;83;21433;-76
2022/01/10 02:37:55;;;;;;;23.15;9.95;;;;;;;-1.13;87.19;96710.58;1699011;84;21007;-76
2022/01/10 02:40:26;;;;;;;21.65;9.83;;;;;;;-1.11;87.21;96717.93;1704728;84;21010;-76
2022/01/10 02:42:53;;;;;;;19.82;9.48;;;;;;;-1.10;86.83;96716.63;1711359;84;21424;-76
2022/01/10 02:45:20;;;;;;;20.02;9.45;;;;;;;-1.14;87.21;96721.83;1711300;84;21026;-76
2022/01/10 02:47:48;;;;;;;20.50;10.45;;;;;;;-1.18;87.46;96720.10;1704940;84;21003;-76
2022/01/10 02:50:16;;;;;;;22.62;10.43;;;;;;;-1.13;86.99;96720.53;1698998;84;21059;-77
2022/01/10 02:52:44;;;;;;;23.67;9.78;;;;;;;-1.15;87.52;96722.70;1687442;84;21005;-76
2022/01/10 02:55:12;;;;;;;23.27;10.15;;;;;;;-1.11;87.05;96725.31;1668043;86;21075;-76
2022/01/10 02:57:40;;;;;;;24.27;11.90;;;;;;;-1.10;87.34;96725.73;1668279;86;21083;-76
2022/01/10 03:00:12;;;;;;;28.40;11.80;;;;;;;-1.10;87.07;96720.53;1668230;86;21009;-76
2022/01/10 03:02:38;;;;;;;24.67;10.60;;;;;;;-1.07;87.03;96726.15;1683355;85;21027;-76
2022/01/10 03:05:07;;;;;;;28.25;11.65;;;;;;;-1.13;87.51;96725.73;1691401;84;21566;-76
2022/01/10 03:07:34;;;;;;;28.10;12.25;;;;;;;-1.08;87.09;96723.97;1690615;85;21440;-76
2022/01/10 03:10:00;;;;;;;23.90;12.33;;;;;;;-1.04;87.13;96716.17;1690742;85;21470;-74
2022/01/10 03:12:30;;;;;;;26.45;12.13;;;;;;;-1.00;87.10;96723.94;1682651;84;20960;-74
2022/01/10 03:14:58;;;;;;;26.57;12.07;;;;;;;-0.93;87.27;96720.88;1710609;84;21056;-74
2022/01/10 03:17:27;;;;;;;27.85;12.30;;;;;;;-0.87;87.31;96722.15;1690467;85;21103;-74
2022/01/10 03:19:54;;;;;;;27.40;11.75;;;;;;;-0.82;87.22;96731.25;1690577;85;20977;-74
2022/01/10 03:22:20;;;;;;;30.95;12.73;;;;;;;-0.81;86.74;96723.44;1690681;85;21103;-74
2022/01/10 03:24:46;;;;;;;27.32;11.85;;;;;;;-0.79;86.86;96722.11;1690877;85;21518;-77
2022/01/10 03:27:14;;;;;;;31.07;12.15;;;;;;;-0.77;86.96;96726.00;1692464;84;20969;-76
2022/01/10 03:29:41;;;;;;;22.45;11.40;;;;;;;-0.71;87.02;96717.73;1711155;84;21045;-76
2022/01/10 03:32:08;;;;;;;24.77;11.10;;;;;;;-0.70;86.56;96736.83;1711077;83;21019;-76
2022/01/10 03:34:35;;;;;;;21.55;10.45;;;;;;;-0.79;86.34;96737.72;1711085;84;21610;-76
2022/01/10 03:37:02;;;;;;;27.17;12.10;;;;;;;-0.82;86.30;96740.35;1711145;83;21065;-76
2022/01/10 03:39:29;;;;;;;26.12;11.12;;;;;;;-0.84;86.58;96743.38;1705755;84;21005;-77
2022/01/10 03:41:56;;;;;;;24.70;11.18;;;;;;;-0.89;86.69;96738.63;1690788;85;20961;-76
2022/01/10 03:44:23;;;;;;;27.05;12.53;;;;;;;-0.92;86.98;96738.20;1690831;85;21067;-76
2022/01/10 03:46:50;;;;;;;26.35;11.55;;;;;;;-0.93;86.87;96736.48;1690814;85;21012;-76
2022/01/10 03:49:18;;;;;;;24.63;11.80;;;;;;;-0.92;86.77;96732.16;1690680;85;21012;-76
2022/01/10 03:51:44;;;;;;;20.25;10.13;;;;;;;-0.91;86.61;96736.48;1696123;83;21019;-76
2022/01/10 03:54:11;;;;;;;20.25;9.60;;;;;;;-0.89;86.54;96736.03;1675744;84;21052;-77
2022/01/10 03:56:37;;;;;;;20.60;9.65;;;;;;;-0.84;86.33;96738.17;1667539;85;20992;-76
2022/01/10 03:59:06;;;;;;;22.60;9.85;;;;;;;-0.85;86.36;96732.55;1676674;85;21497;-76
2022/01/10 04:01:35;;;;;;;21.93;10.03;;;;;;;-0.87;86.18;96729.95;1660133;86;20973;-76
2022/01/10 04:04:01;;;;;;;23.67;10.68;;;;;;;-0.86;86.25;96731.70;1676434;85;20978;-76
2022/01/10 04:06:28;;;;;;;19.90;9.25;;;;;;;-0.84;86.38;96733.84;1679925;85;21422;-76
2022/01/10 04:08:54;;;;;;;22.93;11.33;;;;;;;-0.82;86.35;96742.50;1679800;85;21007;-78
2022/01/10 04:11:21;;;;;;;21.95;11.03;;;;;;;-0.75;86.20;96747.70;1679940;85;20981;-76
2022/01/10 04:13:49;;;;;;;20.50;9.20;;;;;;;-0.76;85.74;96742.04;1685796;85;21052;-74
2022/01/10 04:16:16;;;;;;;20.62;10.25;;;;;;;-0.74;85.94;96748.12;1687651;85;21557;-74
2022/01/10 04:18:43;;;;;;;21.95;10.72;;;;;;;-0.71;85.69;96755.92;1687727;85;21048;-76
2022/01/10 04:21:10;;;;;;;18.77;9.25;;;;;;;-0.75;85.77;96760.70;1685041;85;21053;-73
2022/01/10 04:23:36;;;;;;;22.00;10.20;;;;;;;-0.74;85.91;96757.22;1684113;85;21441;-74
2022/01/10 04:26:03;;;;;;;22.05;9.38;;;;;;;-0.82;85.86;96766.37;1687956;84;21013;-74
2022/01/10 04:28:31;;;;;;;16.77;9.05;;;;;;;-0.84;85.73;96762.89;1672571;85;21016;-76
2022/01/10 04:30:59;;;;;;;21.40;9.58;;;;;;;-0.81;85.63;96765.48;1667944;85;20978;-76
2022/01/10 04:33:29;;;;;;;19.45;9.83;;;;;;;-0.80;85.77;96765.48;1684427;85;21008;-76
2022/01/10 04:35:54;;;;;;;20.32;9.50;;;;;;;-0.78;85.52;96765.48;1686811;85;21056;-76
2022/01/10 04:38:21;;;;;;;22.75;9.93;;;;;;;-0.77;85.56;96768.94;1663779;85;21009;-76
2022/01/10 04:40:48;;;;;;;19.50;9.50;;;;;;;-0.73;85.53;96776.73;1659223;86;21084;-76
2022/01/10 04:43:15;;;;;;;18.55;8.93;;;;;;;-0.77;85.20;96778.92;1667183;85;21013;-74
2022/01/10 04:45:42;;;;;;;18.10;9.15;;;;;;;-0.81;85.01;96783.27;1678860;85;20989;-77
2022/01/10 04:48:10;;;;;;;21.05;10.45;;;;;;;-0.84;85.05;96784.58;1682860;85;21431;-77
2022/01/10 04:51:10;;;;;;;21.10;9.65;;;;;;;-0.84;85.38;96785.88;1687459;85;21072;-77
2022/01/10 04:53:08;;;;;;;18.90;9.03;;;;;;;-0.78;85.30;96790.63;1684397;84;21028;-77
2022/01/10 04:55:35;;;;;;;19.82;9.35;;;;;;;-0.81;85.51;96787.17;1683913;85;21518;-77
2022/01/10 04:58:02;;;;;;;18.62;9.10;;;;;;;-0.81;85.29;96789.78;1679670;85;21080;-77
2022/01/10 05:00:29;;;;;;;17.67;9.15;;;;;;;-0.81;85.48;96787.60;1680789;85;21411;-75
2022/01/10 05:02:56;;;;;;;20.65;9.65;;;;;;;-0.81;85.41;96792.80;1664869;84;21439;-74
2022/01/10 05:05:23;;;;;;;21.95;9.78;;;;;;;-0.83;85.56;96797.16;1687593;85;20974;-75
2022/01/10 05:07:49;;;;;;;21.60;10.08;;;;;;;-0.82;85.54;96798.42;1686889;85;20943;-74
2022/01/10 05:10:17;;;;;;;22.00;10.45;;;;;;;-0.81;85.72;96798.01;1687657;85;21029;-74
2022/01/10 05:12:44;;;;;;;21.10;10.20;;;;;;;-0.81;85.12;96801.48;1687584;85;21033;-75
2022/01/10 05:15:11;;;;;;;22.37;10.53;;;;;;;-0.83;84.70;96808.86;1686834;85;20993;-75
2022/01/10 05:17:38;;;;;;;22.45;10.13;;;;;;;-0.82;84.98;96810.13;1687742;84;20973;-75
2022/01/10 05:20:06;;;;;;;24.75;10.30;;;;;;;-0.80;84.98;96809.71;1687676;85;21060;-75
2022/01/10 05:22:34;;;;;;;24.72;10.65;;;;;;;-0.77;84.98;96807.95;1687706;85;21005;-74
2022/01/10 05:25:00;;;;;;;24.37;11.28;;;;;;;-0.74;85.20;96812.73;1685853;85;21478;-75
2022/01/10 05:27:27;;;;;;;20.45;10.90;;;;;;;-0.72;85.22;96816.19;1687340;85;20977;-74
2022/01/10 05:29:55;;;;;;;23.00;10.98;;;;;;;-0.69;85.17;96817.91;1687802;85;21008;-75
2022/01/10 05:32:21;;;;;;;21.33;10.63;;;;;;;-0.66;85.07;96816.61;1664031;85;21084;-75
2022/01/10 05:34:50;;;;;;;20.97;10.40;;;;;;;-0.65;84.61;96824.84;1680273;84;21061;-74
2022/01/10 05:37:16;;;;;;;23.77;9.78;;;;;;;-0.70;84.75;96823.53;1665577;85;21032;-75
2022/01/10 05:39:43;;;;;;;21.50;11.08;;;;;;;-0.69;84.34;96831.80;1652421;87;21049;-75
2022/01/10 05:42:09;;;;;;;21.05;10.30;;;;;;;-0.69;84.59;96837.42;1658837;85;21045;-74
2022/01/10 05:44:36;;;;;;;22.90;10.65;;;;;;;-0.72;84.36;96842.20;1687504;85;21040;-75
2022/01/10 05:47:03;;;;;;;34.20;15.72;;;;;;;-0.67;84.76;96839.58;1687642;85;21009;-76
2022/01/10 05:49:34;;;;;;;20.92;10.30;;;;;;;-0.62;84.89;96848.68;1687681;85;21056;-75
2022/01/10 05:51:59;;;;;;;25.35;12.55;;;;;;;-0.59;85.07;96843.44;1686855;84;21033;-75
2022/01/10 05:54:34;;;;;;;24.72;11.93;;;;;;;-0.57;84.54;96837.39;1689952;83;21032;-75
2022/01/10 05:57:01;;;;;;;26.70;11.68;;;;;;;-0.57;84.64;96845.63;1694327;84;21391;-75
2022/01/10 05:59:31;;;;;;;27.30;12.98;;;;;;;-0.59;84.76;96840.84;1708441;84;21069;-75
2022/01/10 06:01:59;;;;;;;25.12;12.45;;;;;;;-0.55;84.73;96852.98;1707074;84;21479;-76
2022/01/10 06:04:30;;;;;;;29.55;13.30;;;;;;;-0.57;84.88;96838.70;1696363;85;21449;-76
2022/01/10 06:06:55;;;;;;;31.17;14.78;;;;;;;-0.54;84.95;96845.63;1696127;85;21063;-76
2022/01/10 06:09:21;;;;;;;30.37;15.08;;;;;;;-0.58;85.08;96842.60;1668521;85;21433;-76
2022/01/10 06:11:48;;;;;;;31.25;14.78;;;;;;;-0.66;85.47;96843.93;1695315;85;21036;-76
2022/01/10 06:14:15;;;;;;;35.58;15.30;;;;;;;-0.62;85.26;96853.43;1694720;85;21127;-76
2022/01/10 06:16:42;;;;;;;33.78;15.38;;;;;;;-0.58;85.33;96854.31;1694787;85;21012;-76
2022/01/10 06:19:09;;;;;;;33.42;15.20;;;;;;;-0.57;85.24;96856.03;1694844;84;21057;-76
2022/01/10 06:21:35;;;;;;;34.90;15.75;;;;;;;-0.55;85.47;96857.76;1694940;85;21100;-76
2022/01/10 06:24:03;;;;;;;31.70;14.18;;;;;;;-0.55;85.46;96863.39;1694362;85;20997;-75
2022/01/10 06:26:30;;;;;;;33.40;15.38;;;;;;;-0.56;85.56;96865.56;1694828;85;21529;-75
2022/01/10 06:28:57;;;;;;;29.55;14.87;;;;;;;-0.56;85.44;96869.05;1694826;84;21421;-75
2022/01/10 06:31:23;;;;;;;31.93;14.33;;;;;;;-0.55;85.37;96875.10;1694241;84;20991;-76
2022/01/10 06:33:52;;;;;;;34.18;15.45;;;;;;;-0.54;85.60;96879.00;1690185;84;20961;-75
2022/01/10 06:36:18;;;;;;;30.10;13.78;;;;;;;-0.48;85.66;96888.54;1690584;85;21100;-75
2022/01/10 06:38:46;;;;;;;31.37;14.65;;;;;;;-0.44;85.61;96892.87;1691230;84;21540;-75
2022/01/10 06:41:13;;;;;;;31.00;14.47;;;;;;;-0.40;85.82;96892.41;1693173;85;21411;-76
2022/01/10 06:43:39;;;;;;;31.93;15.00;;;;;;;-0.35;85.50;96897.16;1678348;85;21028;-75
2022/01/10 06:46:07;;;;;;;86.05;39.25;;;;;;;-0.37;85.23;96900.23;1696512;85;21056;-75
2022/01/10 06:48:33;;;;;;;40.08;18.57;;;;;;;-0.37;85.32;96901.95;1696418;85;21032;-75
2022/01/10 06:51:01;;;;;;;36.45;18.15;;;;;;;-0.40;85.22;96901.52;1695982;85;21041;-74
2022/01/10 06:53:28;;;;;;;42.80;19.15;;;;;;;-0.41;85.35;96905.85;1691038;84;21603;-75
2022/01/10 06:55:55;;;;;;;40.58;17.82;;;;;;;-0.38;85.49;96899.77;1693427;84;21489;-75
2022/01/10 06:58:21;;;;;;;35.73;17.20;;;;;;;-0.39;85.29;96904.55;1696556;84;21071;-75
2022/01/10 07:00:48;;;;;;;34.55;17.15;;;;;;;-0.35;85.86;96907.58;1696268;84;20996;-76
2022/01/10 07:03:15;;;;;;;38.00;17.25;;;;;;;-0.29;85.85;96913.21;1696281;84;20995;-75
2022/01/10 07:05:43;;;;;;;38.23;17.25;;;;;;;-0.24;85.89;96914.05;1695361;84;21015;-75
2022/01/10 07:08:11;;;;;;;42.00;17.75;;;;;;;-0.19;85.88;96912.30;1699483;83;21517;-75
2022/01/10 07:10:55;;;;;;;35.58;16.65;;;;;;;-0.15;85.46;96915.33;1691994;84;21069;-75
2022/01/10 07:13:24;;;;;;;34.92;15.45;;;;;;;-0.14;85.41;96923.56;1695756;85;21000;-75
2022/01/10 07:15:51;;;;;;;31.73;14.90;;;;;;;-0.12;85.41;96929.19;1697066;84;21548;-75
2022/01/10 07:18:18;;;;;;;32.17;15.15;;;;;;;-0.06;85.48;96927.86;1697024;84;21054;-75
2022/01/10 07:20:46;;;;;;;30.05;14.53;;;;;;;-0.01;85.67;96926.09;1682286;85;21060;-75
2022/01/10 07:23:15;;;;;;;32.60;15.43;;;;;;;0.04;85.30;96931.30;1680947;85;21021;-77
2022/01/10 07:25:42;;;;;;;32.17;17.02;;;;;;;0.03;85.02;96936.09;1689727;84;21495;-77
2022/01/10 07:28:11;;;;;;;31.23;14.25;;;;;;;-0.02;84.87;96932.18;1690904;85;20987;-77
2022/01/10 07:30:38;;;;;;;33.45;16.02;;;;;;;-0.06;84.82;96940.45;1690347;85;21456;-76
2022/01/10 07:33:04;;;;;;;31.20;15.20;;;;;;;-0.08;84.79;96949.14;1690685;85;21051;-76
2022/01/10 07:35:31;;;;;;;31.55;14.73;;;;;;;-0.09;85.06;96948.72;1677111;85;21083;-76
2022/01/10 07:37:57;;;;;;;34.73;16.35;;;;;;;-0.07;84.99;96946.54;1693942;85;21419;-77
2022/01/10 07:40:24;;;;;;;33.13;15.75;;;;;;;-0.06;85.03;96948.27;1688183;83;21059;-76
2022/01/10 07:42:51;;;;;;;30.75;13.60;;;;;;;-0.01;85.42;96945.63;1693534;85;21055;-76
2022/01/10 07:45:20;;;;;;;26.27;12.63;;;;;;;0.05;84.53;96944.32;1692403;85;21530;-77
2022/01/10 07:47:47;;;;;;;26.25;13.43;;;;;;;0.09;84.66;96942.10;1695463;84;21085;-76
2022/01/10 07:50:16;;;;;;;31.05;14.50;;;;;;;0.14;84.90;96935.58;1693844;85;20952;-77
2022/01/10 07:52:43;;;;;;;30.92;14.95;;;;;;;0.21;84.81;96941.18;1694774;84;20981;-76
2022/01/10 07:55:10;;;;;;;31.02;15.18;;;;;;;0.26;84.86;96945.92;1695827;84;21068;-76
2022/01/10 07:57:37;;;;;;;30.95;14.00;;;;;;;0.32;84.69;96948.95;1680450;85;21085;-75
2022/01/10 08:00:07;;;;;;;28.00;13.25;;;;;;;0.36;84.35;96957.18;1677412;85;21004;-76
2022/01/10 08:02:35;;;;;;;29.05;13.93;;;;;;;0.34;84.34;96961.52;1678966;85;21040;-76
2022/01/10 08:05:02;;;;;;;30.65;13.85;;;;;;;0.35;84.30;96961.09;1677342;85;21030;-76
2022/01/10 08:07:29;;;;;;;31.33;15.00;;;;;;;0.38;84.33;96965.00;1670019;85;21096;-76
2022/01/10 08:09:55;;;;;;;35.10;16.60;;;;;;;0.38;84.19;96968.91;1677737;85;21532;-75
2022/01/10 08:12:22;;;;;;;34.15;15.65;;;;;;;0.39;84.19;96971.94;1682098;85;21065;-76
2022/01/10 08:14:48;;;;;;;33.53;14.73;;;;;;;0.43;84.22;96967.56;1672179;85;21104;-76
2022/01/10 08:17:15;;;;;;;30.57;13.40;;;;;;;0.45;84.04;96970.59;1663216;85;21041;-77
2022/01/10 08:19:42;;;;;;;33.63;16.45;;;;;;;0.47;83.94;96961.46;1669714;85;21521;-76
2022/01/10 08:22:09;;;;;;;30.70;13.95;;;;;;;0.52;84.11;96966.21;1666833;85;21041;-77
2022/01/10 08:24:36;;;;;;;28.87;13.90;;;;;;;0.62;84.10;96966.58;1639483;86;21040;-77
2022/01/10 08:27:03;;;;;;;28.70;13.25;;;;;;;0.73;83.97;96973.45;1602711;89;21044;-78
2022/01/10 08:29:29;;;;;;;28.90;14.03;;;;;;;0.77;83.20;96974.75;1625256;88;21043;-77
2022/01/10 08:31:57;;;;;;;29.70;14.93;;;;;;;0.79;83.08;96965.61;1638180;86;21098;-76
2022/01/10 08:34:26;;;;;;;30.23;14.28;;;;;;;0.84;83.61;96978.19;1623379;88;21031;-77
2022/01/10 08:36:56;;;;;;;31.45;13.78;;;;;;;0.91;83.43;96983.77;1622764;88;21470;-76
2022/01/10 08:39:22;;;;;;;29.02;13.90;;;;;;;0.95;83.37;96982.00;1622732;88;21162;-76
2022/01/10 08:41:48;;;;;;;32.00;15.32;;;;;;;0.95;83.09;96987.67;1622942;88;21067;-77
2022/01/10 08:44:17;;;;;;;31.37;15.28;;;;;;;0.98;83.34;96987.62;1622654;88;21553;-77
2022/01/10 08:46:45;;;;;;;35.75;15.72;;;;;;;1.02;83.56;96992.83;1623543;88;21006;-77
2022/01/10 08:49:12;;;;;;;40.25;17.48;;;;;;;1.04;83.46;96988.91;1624048;88;21061;-77
2022/01/10 08:51:41;;;;;;;37.33;18.90;;;;;;;1.09;83.52;96991.47;1622735;88;21037;-76
2022/01/10 08:54:09;;;;;;;35.73;16.93;;;;;;;1.10;83.48;96997.11;1622730;88;21540;-76
2022/01/10 08:56:36;;;;;;;37.80;18.82;;;;;;;1.10;83.03;96994.50;1635237;87;21160;-76
2022/01/10 08:59:05;;;;;;;36.85;19.60;;;;;;;1.09;83.10;97001.48;1650919;86;21020;-76
2022/01/10 09:01:32;;;;;;;37.88;19.02;;;;;;;1.10;83.26;96999.72;1651655;86;21064;-76
2022/01/10 09:03:59;;;;;;;38.78;19.15;;;;;;;1.15;83.10;96995.33;1652926;86;21029;-76
2022/01/10 09:06:26;;;;;;;50.83;25.15;;;;;;;1.16;83.09;96995.31;1653261;86;21494;-76
2022/01/10 09:08:53;;;;;;;37.83;19.20;;;;;;;1.25;83.22;96999.59;1650088;86;21018;-76
2022/01/10 09:11:19;;;;;;;41.75;19.62;;;;;;;1.27;82.76;97001.77;1652132;86;21056;-77
2022/01/10 09:13:46;;;;;;;39.58;19.52;;;;;;;1.33;82.75;97005.20;1651598;86;21063;-74
2022/01/10 09:16:14;;;;;;;36.95;18.15;;;;;;;1.38;83.06;97006.02;1660851;86;21000;-74
2022/01/10 09:18:41;;;;;;;34.20;17.55;;;;;;;1.42;82.66;96996.83;1655060;85;21056;-74
2022/01/10 09:21:08;;;;;;;36.40;18.30;;;;;;;1.43;82.29;97001.62;1665971;86;20972;-73
2022/01/10 09:23:35;;;;;;;36.00;18.57;;;;;;;1.43;81.86;97004.23;1671150;85;21004;-72
2022/01/10 09:26:01;;;;;;;37.25;17.95;;;;;;;1.48;82.31;96997.64;1673679;85;21402;-73
2022/01/10 09:28:28;;;;;;;37.53;18.77;;;;;;;1.50;82.02;97003.73;1664595;86;21030;-75
2022/01/10 09:30:55;;;;;;;39.18;19.65;;;;;;;1.52;81.68;97004.15;1649984;85;20996;-73
2022/01/10 09:33:21;;;;;;;42.90;20.88;;;;;;;1.54;82.24;96998.45;1649495;86;21035;-72
2022/01/10 09:35:48;;;;;;;42.30;20.50;;;;;;;1.58;81.80;97000.63;1654772;86;21023;-72
2022/01/10 09:38:14;;;;;;;39.88;20.68;;;;;;;1.59;82.02;97003.66;1648272;86;21015;-72
2022/01/10 09:40:41;;;;;;;44.33;21.57;;;;;;;1.60;81.48;96998.84;1648250;87;21075;-72
2022/01/10 09:43:07;;;;;;;44.90;22.85;;;;;;;1.62;81.63;97000.99;1659086;86;21005;-73
2022/01/10 09:45:34;;;;;;;47.23;21.93;;;;;;;1.63;80.97;97003.17;1654412;85;21037;-72
2022/01/10 09:48:01;;;;;;;44.98;21.97;;;;;;;1.62;81.55;97004.06;1649174;87;21434;-72
2022/01/10 09:50:28;;;;;;;42.80;21.65;;;;;;;1.65;81.41;97009.23;1653964;86;21033;-73
2022/01/10 09:52:55;;;;;;;44.18;21.35;;;;;;;1.67;81.59;97007.03;1673628;86;20972;-73
2022/01/10 09:55:22;;;;;;;43.20;21.90;;;;;;;1.68;81.45;97009.22;1648702;85;21029;-73
2022/01/10 09:57:48;;;;;;;43.50;19.73;;;;;;;1.71;81.31;97010.51;1621863;87;21054;-73
2022/01/10 10:00:17;;;;;;;41.42;20.25;;;;;;;1.69;81.41;97017.05;1616696;89;21072;-74
2022/01/10 10:02:49;;;;;;;45.43;20.70;;;;;;;1.73;81.35;97022.25;1622038;88;21012;-73
2022/01/10 10:05:17;;;;;;;42.43;20.70;;;;;;;1.76;81.03;97017.85;1624960;87;21400;-74
2022/01/10 10:07:44;;;;;;;48.83;22.50;;;;;;;1.79;81.30;97018.27;1596514;89;21068;-74
2022/01/10 10:10:13;;;;;;;44.30;20.60;;;;;;;1.83;81.18;97023.88;1616328;89;21075;-73
2022/01/10 10:12:43;;;;;;;42.40;20.72;;;;;;;1.87;81.14;97021.64;1616220;88;21021;-74
2022/01/10 10:15:12;;;;;;;41.58;20.35;;;;;;;1.92;81.22;97026.41;1616099;88;21071;-73
2022/01/10 10:17:40;;;;;;;45.35;21.60;;;;;;;1.97;80.99;97024.61;1615812;88;21095;-73
2022/01/10 10:20:09;;;;;;;42.80;20.55;;;;;;;1.97;79.88;97031.14;1614683;89;21027;-73
2022/01/10 10:22:42;;;;;;;42.13;20.12;;;;;;;1.97;80.83;97032.45;1612526;89;21073;-73
2022/01/10 10:25:11;;;;;;;41.92;19.50;;;;;;;2.01;80.46;97031.97;1614692;89;21474;-73
2022/01/10 10:27:43;;;;;;;39.45;19.57;;;;;;;2.00;80.29;97033.28;1624747;87;21067;-73
2022/01/10 10:30:21;;;;;;;44.77;19.80;;;;;;;1.99;80.16;97027.17;1621369;87;21084;-73
2022/01/10 10:32:49;;;;;;;45.10;20.02;;;;;;;1.98;80.16;97033.29;1615277;87;21047;-74
2022/01/10 10:35:15;;;;;;;39.40;19.95;;;;;;;1.99;80.21;97028.48;1588855;88;21572;-73
2022/01/10 10:37:44;;;;;;;39.50;19.73;;;;;;;2.01;80.34;97033.70;1615247;89;21116;-73
2022/01/10 10:40:14;;;;;;;38.13;19.62;;;;;;;2.02;80.22;97035.42;1590909;89;20984;-74
2022/01/10 10:42:45;;;;;;;41.55;19.25;;;;;;;2.02;80.04;97032.81;1613296;89;21505;-71
2022/01/10 10:45:14;;;;;;;39.23;19.73;;;;;;;1.98;79.28;97031.55;1615429;89;21081;-76
2022/01/10 10:47:44;;;;;;;36.13;18.12;;;;;;;1.98;79.96;97028.06;1590877;90;21062;-76
2022/01/10 10:50:12;;;;;;;36.17;17.65;;;;;;;1.98;78.80;97034.17;1605192;89;21040;-76
2022/01/10 10:52:41;;;;;;;41.85;19.10;;;;;;;1.99;79.64;97036.32;1616187;89;21012;-76
2022/01/10 10:55:12;;;;;;;36.85;18.75;;;;;;;2.01;79.49;97037.63;1616229;89;21442;-76
2022/01/10 10:57:41;;;;;;;37.05;18.20;;;;;;;2.05;79.50;97041.94;1662755;85;21532;-76
2022/01/10 11:00:15;;;;;;;36.25;17.52;;;;;;;2.08;79.37;97041.91;1676437;86;21023;-76
2022/01/10 11:02:43;;;;;;;44.50;19.90;;;;;;;2.15;79.51;97034.88;1674490;86;21041;-76
2022/01/10 11:05:12;;;;;;;37.83;19.20;;;;;;;2.19;78.73;97048.30;1655546;86;21046;-76
2022/01/10 11:07:40;;;;;;;42.13;20.25;;;;;;;2.24;79.28;97042.16;1675899;86;21034;-76
2022/01/10 11:10:08;;;;;;;41.02;20.05;;;;;;;2.29;79.08;97048.65;1692079;85;21065;-76
2022/01/10 11:12:41;;;;;;;39.98;18.92;;;;;;;2.34;78.84;97044.66;1685034;85;20981;-76
2022/01/10 11:15:09;;;;;;;39.33;19.27;;;;;;;2.37;79.16;97042.02;1665985;86;21101;-76
2022/01/10 11:17:39;;;;;;;37.23;19.50;;;;;;;2.40;77.86;97046.34;1674167;85;21013;-76
2022/01/10 11:20:17;;;;;;;39.53;20.05;;;;;;;2.40;78.03;97044.58;1666017;86;21109;-76
2022/01/10 11:22:50;;;;;;;48.42;21.17;;;;;;;2.38;77.14;97045.90;1666135;86;21045;-76
2022/01/10 11:25:31;;;;;;;42.80;20.10;;;;;;;2.39;77.89;97045.47;1666018;86;21192;-76
2022/01/10 11:28:06;;;;;;;38.85;19.25;;;;;;;2.41;77.57;97035.84;1666108;86;21061;-76
2022/01/10 11:30:38;;;;;;;34.95;18.50;;;;;;;2.46;78.24;97037.11;1670010;85;21074;-76
2022/01/10 11:33:09;;;;;;;37.88;19.20;;;;;;;2.43;77.29;97027.98;1670693;85;21001;-77
2022/01/10 11:35:46;;;;;;;36.00;17.67;;;;;;;2.39;77.72;97036.31;1692250;85;21552;-76
2022/01/10 11:38:45;;;;;;;39.78;20.50;;;;;;;2.43;78.00;97029.29;1692086;85;21032;-76